Time;durP1;ratioP1;P1;durP2;ratioP2;P2;SDS_P1;SDS_P2;PMS_P1;PMS_P2;Temp;Humidity;BMP_temperature;BMP_pressure;BME280_temperature;BME280_humidity;BME280_pressure;Samples;Min_cycle;Max_cycle;Signal;HPM_P1;HPM_P2
2023/08/26 00:02:09;;;;;;;12.35;9.38;;;16.30;99.90;;;;;;5094346;28;20044;-72
2023/08/26 00:04:36;;;;;;;13.02;9.32;;;16.20;99.90;;;;;;5094072;28;20231;-72
2023/08/26 00:07:03;;;;;;;11.32;8.15;;;16.20;99.90;;;;;;5076094;28;20515;-72
2023/08/26 00:09:30;;;;;;;12.93;9.02;;;16.10;99.90;;;;;;5075195;28;20055;-72
2023/08/26 00:11:57;;;;;;;13.63;9.13;;;16.10;99.90;;;;;;5093309;28;20058;-73
2023/08/26 00:14:23;;;;;;;13.00;9.18;;;16.10;99.90;;;;;;5109383;28;20047;-72
2023/08/26 00:16:52;;;;;;;14.30;9.65;;;16.10;99.90;;;;;;5075787;28;20040;-71
2023/08/26 00:19:20;;;;;;;13.15;8.93;;;16.10;99.90;;;;;;5076573;28;20445;-71
2023/08/26 00:21:48;;;;;;;11.98;8.60;;;16.10;99.90;;;;;;5092373;28;20051;-70
2023/08/26 00:24:15;;;;;;;13.07;9.25;;;16.10;99.90;;;;;;5093176;28;20044;-70
2023/08/26 00:26:41;;;;;;;11.43;8.40;;;16.10;99.90;;;;;;5092623;28;20040;-70
2023/08/26 00:29:08;;;;;;;13.18;8.75;;;16.10;99.90;;;;;;5094794;27;20044;-70
2023/08/26 00:31:36;;;;;;;15.10;8.80;;;16.10;99.90;;;;;;5096714;27;20047;-70
2023/08/26 00:34:04;;;;;;;11.25;8.65;;;16.10;99.90;;;;;;5080404;28;20058;-70
2023/08/26 00:36:31;;;;;;;13.98;8.90;;;16.10;99.90;;;;;;5077942;28;20117;-70
2023/08/26 00:38:58;;;;;;;11.48;7.85;;;16.00;99.90;;;;;;5079467;28;20399;-70
2023/08/26 00:41:25;;;;;;;15.80;9.00;;;16.00;99.90;;;;;;5079091;28;20557;-71
2023/08/26 00:43:52;;;;;;;11.73;8.32;;;16.00;99.90;;;;;;5096494;27;20503;-70
2023/08/26 00:46:20;;;;;;;12.90;8.90;;;15.90;99.90;;;;;;5096126;27;20047;-71
2023/08/26 00:48:47;;;;;;;14.98;8.73;;;15.90;99.90;;;;;;5094698;28;20048;-70
2023/08/26 00:51:17;;;;;;;20.52;9.95;;;15.90;99.90;;;;;;5078842;27;20128;-71
2023/08/26 00:53:44;;;;;;;13.00;9.33;;;15.80;99.90;;;;;;5096327;27;20525;-70
2023/08/26 00:56:11;;;;;;;12.00;8.43;;;15.80;99.90;;;;;;5077026;27;20056;-71
2023/08/26 00:58:38;;;;;;;12.82;8.85;;;15.70;99.90;;;;;;5078793;28;20044;-71
2023/08/26 01:01:05;;;;;;;12.48;9.05;;;15.70;99.90;;;;;;5095885;28;20044;-71
2023/08/26 01:03:32;;;;;;;14.18;8.40;;;15.60;99.90;;;;;;5095175;28;20518;-72
2023/08/26 01:05:59;;;;;;;14.02;8.55;;;15.60;99.90;;;;;;5095648;27;20385;-71
2023/08/26 01:08:27;;;;;;;12.95;8.43;;;15.60;99.90;;;;;;5078095;28;20048;-70
2023/08/26 01:11:04;;;;;;;12.65;8.75;;;15.60;99.90;;;;;;5078089;28;20051;-70
2023/08/26 01:13:48;;;;;;;10.73;8.18;;;15.50;99.90;;;;;;5096053;27;20059;-70
2023/08/26 01:16:17;;;;;;;12.52;8.50;;;15.50;99.90;;;;;;5078920;28;20492;-70
2023/08/26 01:18:45;;;;;;;12.10;7.78;;;15.50;99.90;;;;;;5129582;27;20482;-69
2023/08/26 01:21:13;;;;;;;10.43;8.20;;;15.40;99.90;;;;;;5134278;27;20052;-70
2023/08/26 01:23:43;;;;;;;12.02;7.47;;;15.40;99.90;;;;;;5133900;27;20459;-70
2023/08/26 01:26:10;;;;;;;12.93;8.70;;;15.30;99.90;;;;;;5094434;28;20044;-69
2023/08/26 01:28:37;;;;;;;15.02;8.80;;;15.30;99.90;;;;;;5096397;28;20103;-70
2023/08/26 01:31:10;;;;;;;14.57;8.70;;;15.40;99.90;;;;;;5096045;28;20047;-69
2023/08/26 01:33:41;;;;;;;11.50;9.07;;;15.30;99.90;;;;;;5094264;28;20052;-69
2023/08/26 01:36:14;;;;;;;15.73;9.10;;;15.30;99.90;;;;;;5095991;27;20101;-69
2023/08/26 01:38:43;;;;;;;13.60;8.73;;;15.30;99.90;;;;;;5077392;28;20058;-68
2023/08/26 01:41:13;;;;;;;15.15;9.65;;;15.20;99.90;;;;;;5094616;27;20117;-69
2023/08/26 01:43:41;;;;;;;15.73;9.60;;;15.20;99.90;;;;;;5096372;28;20097;-69
2023/08/26 01:46:08;;;;;;;13.30;8.77;;;15.20;99.90;;;;;;5095442;28;20055;-69
2023/08/26 01:48:34;;;;;;;13.27;8.70;;;15.10;99.90;;;;;;5096893;27;20051;-68
2023/08/26 01:51:02;;;;;;;10.45;8.15;;;15.10;99.90;;;;;;5094974;27;20412;-69
2023/08/26 01:53:28;;;;;;;13.48;8.27;;;15.00;99.90;;;;;;5077583;28;20048;-69
2023/08/26 01:55:57;;;;;;;13.93;8.73;;;15.00;99.90;;;;;;5093663;28;20108;-69
2023/08/26 01:58:24;;;;;;;11.70;8.10;;;14.90;99.90;;;;;;5114000;28;20048;-69
2023/08/26 02:00:51;;;;;;;13.95;8.98;;;14.90;99.90;;;;;;5095247;27;20065;-69
2023/08/26 02:03:17;;;;;;;11.77;7.78;;;14.80;99.90;;;;;;5094929;27;20052;-69
2023/08/26 02:05:44;;;;;;;12.85;8.48;;;14.80;99.90;;;;;;5093899;27;20377;-69
2023/08/26 02:08:11;;;;;;;15.85;8.32;;;14.80;99.90;;;;;;5097132;27;20040;-70
2023/08/26 02:10:38;;;;;;;9.38;7.55;;;14.70;99.90;;;;;;5094749;27;20048;-71
2023/08/26 02:13:06;;;;;;;9.70;7.90;;;14.60;99.90;;;;;;5078112;28;20427;-71
2023/08/26 02:15:34;;;;;;;13.10;8.48;;;14.60;99.90;;;;;;5077251;27;20047;-70
2023/08/26 02:18:02;;;;;;;10.90;8.27;;;14.50;99.90;;;;;;5094615;27;20048;-70
2023/08/26 02:20:29;;;;;;;10.90;7.82;;;14.50;99.90;;;;;;5075923;27;20043;-70
2023/08/26 02:22:56;;;;;;;14.18;7.80;;;14.40;99.90;;;;;;5077660;28;20079;-71
2023/08/26 02:25:23;;;;;;;10.50;7.20;;;14.40;99.90;;;;;;5095541;28;20055;-70
2023/08/26 02:27:50;;;;;;;13.00;8.07;;;14.30;99.90;;;;;;5094663;28;20504;-72
2023/08/26 02:30:18;;;;;;;12.85;8.60;;;14.20;99.90;;;;;;5096321;27;20036;-72
2023/08/26 02:32:45;;;;;;;11.85;7.72;;;14.20;99.90;;;;;;5096382;28;20518;-72
2023/08/26 02:35:12;;;;;;;12.18;8.30;;;14.20;99.90;;;;;;5093781;27;20059;-72
2023/08/26 02:37:39;;;;;;;12.23;7.78;;;14.10;99.90;;;;;;5092737;28;20122;-72
2023/08/26 02:40:07;;;;;;;17.05;8.82;;;14.00;99.90;;;;;;5076738;28;20059;-72
2023/08/26 02:42:34;;;;;;;14.68;8.48;;;14.00;99.90;;;;;;5093410;27;20048;-72
2023/08/26 02:45:01;;;;;;;12.20;8.02;;;14.00;99.90;;;;;;5094204;27;20409;-71
2023/08/26 02:47:29;;;;;;;9.82;7.10;;;14.00;99.90;;;;;;5093931;28;20066;-71
2023/08/26 02:49:56;;;;;;;11.18;6.82;;;14.00;99.90;;;;;;5095213;27;20549;-71
2023/08/26 02:52:23;;;;;;;10.90;6.57;;;13.90;99.90;;;;;;5075103;28;20800;-71
2023/08/26 02:54:50;;;;;;;13.02;7.03;;;13.90;99.90;;;;;;5077573;28;20048;-71
2023/08/26 02:57:17;;;;;;;11.07;7.05;;;13.90;99.90;;;;;;5075051;27;20388;-71
2023/08/26 02:59:45;;;;;;;11.70;7.18;;;13.80;99.90;;;;;;5077067;27;20461;-72
2023/08/26 03:02:12;;;;;;;9.52;6.82;;;13.80;99.90;;;;;;5092786;27;20404;-71
2023/08/26 03:04:43;;;;;;;12.10;6.53;;;13.70;99.90;;;;;;5076582;28;20484;-71
2023/08/26 03:07:09;;;;;;;;;;;13.70;99.90;;;;;;5077051;28;20096;-71
2023/08/26 03:09:36;;;;;;;10.48;6.50;;;13.70;99.90;;;;;;5093183;28;19924;-71
2023/08/26 03:12:03;;;;;;;11.75;6.63;;;13.60;99.90;;;;;;5076848;27;20044;-71
2023/08/26 03:14:30;;;;;;;13.15;6.45;;;13.60;99.90;;;;;;5075676;28;20048;-70
2023/08/26 03:16:57;;;;;;;12.27;7.15;;;13.60;99.90;;;;;;5075698;28;20044;-70
2023/08/26 03:19:24;;;;;;;11.63;6.68;;;13.50;99.90;;;;;;5077464;28;20071;-71
2023/08/26 03:21:52;;;;;;;8.60;6.35;;;13.50;99.90;;;;;;5093339;28;20055;-71
2023/08/26 03:24:19;;;;;;;8.30;6.18;;;13.50;99.90;;;;;;5093010;28;20051;-71
2023/08/26 03:26:46;;;;;;;8.73;6.00;;;13.50;99.90;;;;;;5093529;27;20048;-71
2023/08/26 03:29:13;;;;;;;9.35;6.72;;;13.40;99.90;;;;;;5106963;28;20082;-71
2023/08/26 03:31:42;;;;;;;12.88;6.80;;;13.40;99.90;;;;;;5113003;28;20055;-71
2023/08/26 03:34:09;;;;;;;11.43;6.63;;;13.40;99.90;;;;;;5131947;28;20066;-71
2023/08/26 03:36:36;;;;;;;12.63;6.47;;;13.40;99.90;;;;;;5132148;28;20047;-70
2023/08/26 03:39:05;;;;;;;9.20;6.63;;;13.30;99.90;;;;;;5120352;28;20043;-71
2023/08/26 03:41:32;;;;;;;8.20;6.10;;;13.30;99.90;;;;;;5075871;28;20044;-70
2023/08/26 03:43:59;;;;;;;13.77;6.82;;;13.20;99.90;;;;;;5093373;28;20044;-70
2023/08/26 03:46:26;;;;;;;13.35;6.75;;;13.20;99.90;;;;;;5075081;28;20064;-69
2023/08/26 03:48:53;;;;;;;10.18;6.53;;;13.30;99.90;;;;;;5076666;28;20506;-71
2023/08/26 03:51:20;;;;;;;7.35;6.03;;;13.30;99.90;;;;;;5074957;28;20261;-70
2023/08/26 03:53:47;;;;;;;10.25;6.90;;;13.30;99.90;;;;;;5076417;28;20105;-70
2023/08/26 03:56:15;;;;;;;9.68;6.78;;;13.40;99.90;;;;;;5091693;28;20044;-71
2023/08/26 03:58:42;;;;;;;12.50;6.90;;;13.40;99.90;;;;;;5092770;28;20060;-70
2023/08/26 04:01:09;;;;;;;12.25;7.07;;;13.40;99.90;;;;;;5093400;28;20040;-74
2023/08/26 04:03:36;;;;;;;11.02;6.70;;;13.50;99.90;;;;;;5094728;27;20052;-74
2023/08/26 04:06:04;;;;;;;11.05;6.57;;;13.50;99.90;;;;;;5096748;27;20039;-73
2023/08/26 04:08:33;;;;;;;9.30;7.55;;;13.60;99.90;;;;;;5097248;27;20051;-73
2023/08/26 04:11:02;;;;;;;10.57;7.60;;;13.60;99.90;;;;;;5080203;28;20059;-71
2023/08/26 04:13:30;;;;;;;10.60;7.13;;;13.60;99.90;;;;;;5079785;28;20079;-72
2023/08/26 04:15:58;;;;;;;12.73;7.50;;;13.70;99.90;;;;;;5096810;27;20047;-72
2023/08/26 04:18:25;;;;;;;13.10;7.57;;;13.70;99.90;;;;;;5079971;28;20075;-70
2023/08/26 04:20:53;;;;;;;13.23;7.75;;;13.70;99.90;;;;;;5094953;28;20380;-70
2023/08/26 04:23:20;;;;;;;13.57;8.07;;;13.70;99.90;;;;;;5097465;27;20388;-70
2023/08/26 04:25:47;;;;;;;11.35;7.53;;;13.80;99.90;;;;;;5080640;28;20048;-70
2023/08/26 04:28:15;;;;;;;11.43;7.15;;;13.80;99.90;;;;;;5078449;27;20077;-70
2023/08/26 04:30:45;;;;;;;9.82;7.15;;;13.70;99.90;;;;;;5110816;27;20478;-70
2023/08/26 04:33:12;;;;;;;12.15;7.22;;;13.80;99.90;;;;;;5115882;28;20044;-71
2023/08/26 04:35:39;;;;;;;13.05;7.05;;;13.80;99.90;;;;;;5115392;28;20068;-70
2023/08/26 04:38:06;;;;;;;11.30;7.43;;;13.80;99.90;;;;;;5113645;28;20044;-70
2023/08/26 04:40:33;;;;;;;8.60;7.00;;;13.90;99.90;;;;;;5078542;28;20059;-69
2023/08/26 04:43:03;;;;;;;11.30;6.88;;;13.90;99.90;;;;;;5079767;28;20051;-69
2023/08/26 04:45:30;;;;;;;9.35;7.65;;;13.90;99.90;;;;;;5080272;27;20132;-68
2023/08/26 04:47:58;;;;;;;10.02;6.18;;;14.00;99.90;;;;;;5095902;27;20075;-70
2023/08/26 04:50:25;;;;;;;11.85;7.35;;;14.00;99.90;;;;;;5079955;28;20097;-71
2023/08/26 04:52:52;;;;;;;8.88;6.68;;;14.10;99.90;;;;;;5096691;27;20403;-70
2023/08/26 04:55:19;;;;;;;7.43;6.30;;;14.10;99.90;;;;;;5096041;27;20052;-70
2023/08/26 04:57:46;;;;;;;8.68;6.53;;;14.20;99.90;;;;;;5096019;27;20062;-69
2023/08/26 05:00:16;;;;;;;8.32;6.03;;;14.10;99.90;;;;;;5096138;27;20048;-69
2023/08/26 05:02:43;;;;;;;9.15;6.85;;;14.20;99.90;;;;;;5085305;28;20062;-69
2023/08/26 05:05:11;;;;;;;8.93;6.28;;;14.20;99.90;;;;;;5110953;27;20051;-68
2023/08/26 05:07:38;;;;;;;11.07;6.18;;;14.20;99.90;;;;;;5111477;27;20052;-69
2023/08/26 05:10:07;;;;;;;10.40;5.88;;;14.30;99.90;;;;;;5099370;27;20044;-68
2023/08/26 05:12:34;;;;;;;9.43;5.88;;;14.30;99.90;;;;;;5093799;28;20052;-69
2023/08/26 05:15:02;;;;;;;8.98;6.03;;;14.30;99.90;;;;;;5079500;27;20055;-67
2023/08/26 05:17:29;;;;;;;7.97;5.60;;;14.40;99.90;;;;;;5076880;27;20131;-68
2023/08/26 05:19:56;;;;;;;9.52;4.95;;;14.40;99.90;;;;;;5095726;27;20048;-68
2023/08/26 05:22:24;;;;;;;7.97;5.20;;;14.50;99.90;;;;;;5095635;27;20044;-69
2023/08/26 05:24:51;;;;;;;11.63;5.70;;;14.50;99.90;;;;;;5122399;27;20047;-69
2023/08/26 05:27:18;;;;;;;8.70;5.75;;;14.50;99.90;;;;;;5116091;27;20100;-69
2023/08/26 05:29:46;;;;;;;9.38;5.68;;;14.50;99.90;;;;;;5133520;27;20047;-69
2023/08/26 05:32:13;;;;;;;11.15;6.05;;;14.50;99.90;;;;;;5112849;28;20067;-69
2023/08/26 05:34:39;;;;;;;6.50;5.10;;;14.60;99.90;;;;;;5114591;28;20055;-70
2023/08/26 05:37:06;;;;;;;8.80;5.82;;;14.50;99.90;;;;;;5113843;28;20121;-70
2023/08/26 05:39:35;;;;;;;6.18;5.07;;;14.50;99.90;;;;;;5077523;28;20058;-69
2023/08/26 05:42:01;;;;;;;11.10;6.13;;;14.50;99.90;;;;;;5113709;27;20448;-69
2023/08/26 05:44:28;;;;;;;6.45;5.15;;;14.60;99.90;;;;;;5114981;27;20062;-69
2023/08/26 05:46:55;;;;;;;7.18;5.78;;;14.60;99.90;;;;;;5133749;27;20055;-69
2023/08/26 05:49:22;;;;;;;16.58;5.75;;;14.60;99.90;;;;;;5098324;27;20048;-69
2023/08/26 05:51:49;;;;;;;7.97;5.78;;;14.70;99.90;;;;;;5094505;27;20407;-70
2023/08/26 05:54:16;;;;;;;8.30;5.38;;;14.70;99.90;;;;;;5078374;28;20051;-71
2023/08/26 05:56:44;;;;;;;10.15;5.60;;;14.70;99.90;;;;;;5096018;27;20388;-71
2023/08/26 05:59:11;;;;;;;7.70;5.45;;;14.80;99.90;;;;;;5094382;27;20050;-71
2023/08/26 06:01:38;;;;;;;9.00;4.75;;;14.80;99.90;;;;;;5099249;28;20040;-71
2023/08/26 06:04:06;;;;;;;8.00;4.88;;;14.90;99.90;;;;;;5108772;28;20044;-71
2023/08/26 06:06:34;;;;;;;7.47;5.40;;;15.10;99.90;;;;;;5091670;27;20051;-70
2023/08/26 06:09:02;;;;;;;8.50;4.47;;;15.10;99.90;;;;;;5084343;28;20055;-72
2023/08/26 06:11:29;;;;;;;11.05;5.10;;;15.20;99.90;;;;;;5105986;27;20043;-71
2023/08/26 06:13:58;;;;;;;7.28;4.55;;;15.30;99.90;;;;;;5110078;28;20062;-71
2023/08/26 06:16:25;;;;;;;7.03;3.97;;;15.30;99.90;;;;;;5090260;27;20100;-70
2023/08/26 06:18:52;;;;;;;6.68;4.22;;;15.30;99.90;;;;;;5105826;27;20048;-70
2023/08/26 06:21:19;;;;;;;6.15;4.13;;;15.40;99.90;;;;;;5093467;28;20060;-70
2023/08/26 06:23:45;;;;;;;11.00;4.88;;;15.40;99.90;;;;;;5091371;28;21008;-70
2023/08/26 06:26:12;;;;;;;5.47;3.88;;;15.40;99.90;;;;;;5093217;28;20062;-73
2023/08/26 06:28:39;;;;;;;7.18;4.93;;;15.40;99.90;;;;;;5088772;28;20059;-72
2023/08/26 06:31:07;;;;;;;5.20;3.63;;;15.40;99.90;;;;;;5106157;28;20376;-69
2023/08/26 06:33:34;;;;;;;12.55;4.00;;;15.40;99.90;;;;;;5091854;28;20055;-70
2023/08/26 06:36:02;;;;;;;6.65;3.63;;;15.40;99.90;;;;;;5087257;28;20051;-71
2023/08/26 06:38:29;;;;;;;8.40;4.47;;;15.50;99.90;;;;;;5084851;28;20055;-72
2023/08/26 06:40:56;;;;;;;5.70;3.92;;;15.50;99.90;;;;;;5090973;28;20519;-72
2023/08/26 06:43:24;;;;;;;6.55;4.10;;;15.40;99.90;;;;;;5086782;28;20044;-72
2023/08/26 06:45:51;;;;;;;9.77;4.10;;;15.40;99.90;;;;;;5088640;28;20632;-72
2023/08/26 06:48:20;;;;;;;6.05;3.75;;;15.30;99.90;;;;;;5089293;28;20567;-72
2023/08/26 06:50:50;;;;;;;6.68;3.40;;;15.30;99.90;;;;;;5081191;28;20048;-72
2023/08/26 06:53:20;;;;;;;;;;;15.30;99.90;;;;;;5085008;28;20055;-72
2023/08/26 06:55:49;;;;;;;6.13;3.53;;;15.30;99.90;;;;;;5103984;28;19932;-71
2023/08/26 06:58:16;;;;;;;4.90;3.35;;;15.30;99.90;;;;;;5090313;28;20841;-69
2023/08/26 07:00:43;;;;;;;3.65;2.75;;;15.30;99.90;;;;;;5103934;28;20055;-70
2023/08/26 07:03:11;;;;;;;5.93;3.80;;;15.30;99.90;;;;;;5107443;28;20076;-71
2023/08/26 07:05:43;;;;;;;7.30;3.10;;;15.40;99.90;;;;;;5102217;28;20054;-71
2023/08/26 07:08:09;;;;;;;3.75;2.70;;;15.50;99.90;;;;;;5093073;28;20059;-71
2023/08/26 07:10:37;;;;;;;5.18;3.10;;;15.50;99.90;;;;;;5106099;27;20054;-71
2023/08/26 07:13:04;;;;;;;3.38;2.72;;;15.60;99.90;;;;;;5092614;28;20134;-71
2023/08/26 07:15:31;;;;;;;5.18;3.40;;;15.70;99.90;;;;;;5098669;28;20048;-72
2023/08/26 07:17:57;;;;;;;5.68;2.72;;;15.80;99.90;;;;;;5093055;28;20572;-71
2023/08/26 07:20:25;;;;;;;4.18;2.80;;;16.00;99.90;;;;;;5103561;28;20092;-71
2023/08/26 07:22:53;;;;;;;3.58;2.80;;;16.30;99.90;;;;;;5100285;27;20131;-71
2023/08/26 07:25:21;;;;;;;5.32;3.03;;;16.60;99.90;;;;;;5087568;28;20048;-71
2023/08/26 07:27:48;;;;;;;5.15;2.83;;;16.90;99.90;;;;;;5106236;28;20050;-71
2023/08/26 07:30:15;;;;;;;6.85;2.78;;;17.90;99.90;;;;;;5088604;28;20048;-71
2023/08/26 07:32:42;;;;;;;6.40;3.88;;;19.00;99.90;;;;;;5085507;28;20047;-71
2023/08/26 07:35:10;;;;;;;5.63;3.60;;;19.80;99.90;;;;;;5091151;28;20082;-72
2023/08/26 07:37:37;;;;;;;5.78;4.30;;;20.60;99.90;;;;;;5101397;28;20046;-71
2023/08/26 07:40:13;;;;;;;10.88;5.93;;;21.20;99.90;;;;;;5111376;28;20429;-69
2023/08/26 07:42:40;;;;;;;8.60;6.70;;;21.40;99.90;;;;;;5084904;28;20044;-70
2023/08/26 07:45:08;;;;;;;10.68;8.23;;;21.80;99.90;;;;;;5098375;28;20073;-70
2023/08/26 07:47:35;;;;;;;9.52;7.57;;;21.90;99.90;;;;;;5085049;28;20075;-70
2023/08/26 07:50:02;;;;;;;9.55;8.05;;;22.30;99.90;;;;;;5093089;28;20063;-71
2023/08/26 07:52:29;;;;;;;12.52;8.80;;;22.40;99.90;;;;;;5108303;27;20051;-72
2023/08/26 07:54:56;;;;;;;12.32;8.63;;;22.80;99.90;;;;;;5095441;28;20047;-71
2023/08/26 07:57:24;;;;;;;11.65;8.70;;;22.20;99.90;;;;;;5093203;28;20099;-70
2023/08/26 07:59:51;;;;;;;16.52;8.93;;;21.70;99.90;;;;;;5105699;28;20051;-70
2023/08/26 08:02:18;;;;;;;12.95;9.93;;;21.50;99.90;;;;;;5097657;28;20073;-70
2023/08/26 08:04:45;;;;;;;9.77;8.48;;;21.40;99.90;;;;;;5093058;28;20039;-71
2023/08/26 08:07:12;;;;;;;13.95;9.90;;;21.40;99.90;;;;;;5095467;28;20105;-70
2023/08/26 08:09:39;;;;;;;11.82;8.93;;;21.10;99.90;;;;;;5093439;28;20384;-70
2023/08/26 08:12:08;;;;;;;10.88;9.75;;;20.70;99.90;;;;;;5093732;28;20051;-70
2023/08/26 08:14:36;;;;;;;11.30;9.15;;;20.80;99.90;;;;;;5105968;28;20097;-71
2023/08/26 08:17:04;;;;;;;12.15;9.52;;;20.70;99.90;;;;;;5102368;28;20048;-70
2023/08/26 08:19:31;;;;;;;11.75;8.68;;;21.00;99.90;;;;;;5109303;28;20151;-70
2023/08/26 08:21:58;;;;;;;12.68;8.95;;;21.40;99.90;;;;;;5100113;28;20122;-70
2023/08/26 08:24:24;;;;;;;11.20;8.65;;;22.00;99.90;;;;;;5111504;28;20043;-70
2023/08/26 08:26:51;;;;;;;9.68;8.48;;;22.70;99.90;;;;;;5098488;28;20064;-70
2023/08/26 08:29:19;;;;;;;12.63;8.57;;;22.40;99.90;;;;;;5110788;28;20044;-70
2023/08/26 08:31:47;;;;;;;12.63;8.13;;;22.00;99.90;;;;;;5101850;28;20163;-70
2023/08/26 08:34:14;;;;;;;13.32;8.30;;;21.60;99.90;;;;;;5093492;28;20052;-71
2023/08/26 08:36:41;;;;;;;17.85;8.65;;;21.40;99.90;;;;;;5094847;28;20059;-71
2023/08/26 08:39:07;;;;;;;13.13;7.90;;;21.70;99.90;;;;;;5087969;28;20055;-70
2023/08/26 08:41:36;;;;;;;10.60;8.20;;;21.90;99.90;;;;;;5105930;28;20051;-71
2023/08/26 08:44:09;;;;;;;9.25;6.93;;;22.10;99.90;;;;;;5096868;28;20135;-70
2023/08/26 08:46:37;;;;;;;12.73;7.63;;;22.30;99.90;;;;;;5107151;28;20109;-73
2023/08/26 08:49:05;;;;;;;10.40;7.32;;;22.50;99.90;;;;;;5100626;28;20058;-72
2023/08/26 08:51:33;;;;;;;11.15;6.80;;;22.70;99.90;;;;;;5094425;28;20071;-72
2023/08/26 08:54:01;;;;;;;9.40;6.95;;;23.50;99.90;;;;;;5088077;28;20477;-73
2023/08/26 08:56:31;;;;;;;9.90;7.40;;;24.20;99.90;;;;;;5108822;27;20051;-74
2023/08/26 08:58:58;;;;;;;;;;;24.90;99.90;;;;;;5094191;28;20344;-74
2023/08/26 09:01:26;;;;;;;12.13;6.65;;;25.50;99.90;;;;;;5104399;27;19920;-75
2023/08/26 09:03:53;;;;;;;8.93;5.95;;;25.80;99.90;;;;;;5091560;28;20526;-75
2023/08/26 09:06:22;;;;;;;7.88;6.22;;;25.60;99.90;;;;;;5102726;27;20131;-74
2023/08/26 09:08:49;;;;;;;8.45;5.63;;;25.90;99.90;;;;;;5096946;27;20135;-74
2023/08/26 09:11:16;;;;;;;8.95;6.40;;;26.00;99.90;;;;;;5102611;27;20519;-74
2023/08/26 09:13:45;;;;;;;11.07;6.40;;;25.90;99.90;;;;;;5113032;28;20415;-74
2023/08/26 09:16:12;;;;;;;10.20;6.18;;;25.10;99.90;;;;;;5092720;28;20040;-73
2023/08/26 09:18:40;;;;;;;9.40;6.55;;;24.60;99.90;;;;;;5094856;28;20631;-73
2023/08/26 09:21:08;;;;;;;7.90;5.95;;;24.50;99.90;;;;;;5101672;27;20089;-73
2023/08/26 09:23:44;;;;;;;8.60;5.93;;;24.20;99.90;;;;;;5104797;27;20495;-73
2023/08/26 09:26:11;;;;;;;9.43;6.03;;;24.70;99.90;;;;;;5108529;28;20051;-73
2023/08/26 09:28:39;;;;;;;9.23;6.22;;;24.90;99.90;;;;;;5090623;28;20126;-73
2023/08/26 09:31:08;;;;;;;6.40;5.38;;;24.50;99.90;;;;;;5108235;28;20130;-74
2023/08/26 09:33:35;;;;;;;7.38;5.55;;;24.40;99.90;;;;;;5093604;28;20108;-73
2023/08/26 09:36:02;;;;;;;7.60;5.55;;;24.80;99.90;;;;;;5091184;28;20411;-71
2023/08/26 09:38:40;;;;;;;8.32;5.47;;;25.10;99.90;;;;;;5089359;28;20048;-73
2023/08/26 09:41:09;;;;;;;9.93;6.65;;;25.30;99.90;;;;;;5088968;28;20052;-73
2023/08/26 09:43:36;;;;;;;6.47;5.30;;;25.70;99.90;;;;;;5093179;28;20052;-74
2023/08/26 09:46:04;;;;;;;10.25;5.97;;;26.10;99.90;;;;;;5110976;28;20052;-75
2023/08/26 09:48:31;;;;;;;9.75;5.28;;;25.80;99.90;;;;;;5099474;27;20058;-74
2023/08/26 09:50:58;;;;;;;6.72;5.22;;;25.80;99.90;;;;;;5110554;28;20047;-75
2023/08/26 09:53:32;;;;;;;9.15;5.47;;;25.90;99.90;;;;;;5082089;28;20056;-74
2023/08/26 09:55:59;;;;;;;6.75;5.10;;;25.80;99.90;;;;;;5094596;28;20473;-75
2023/08/26 09:58:28;;;;;;;6.35;5.03;;;25.80;99.90;;;;;;5101523;28;20503;-74
2023/08/26 10:00:55;;;;;;;7.50;4.90;;;25.20;99.90;;;;;;5108249;28;20460;-76
2023/08/26 10:03:25;;;;;;;8.30;5.07;;;24.70;99.90;;;;;;5092106;28;20496;-74
2023/08/26 10:05:55;;;;;;;7.85;5.43;;;24.10;99.90;;;;;;5111486;28;20551;-74
2023/08/26 10:08:31;;;;;;;9.02;6.57;;;23.10;99.90;;;;;;5101822;27;20574;-74
2023/08/26 10:11:02;;;;;;;9.43;5.50;;;22.30;99.90;;;;;;5110699;28;20074;-74
2023/08/26 10:13:32;;;;;;;5.50;3.83;;;21.00;99.90;;;;;;5092829;28;20051;-71
2023/08/26 10:16:01;;;;;;;5.05;2.80;;;20.20;99.90;;;;;;5104896;28;20052;-71
2023/08/26 10:18:35;;;;;;;4.97;3.05;;;19.70;99.90;;;;;;5103084;28;20040;-72
2023/08/26 10:21:03;;;;;;;5.85;2.15;;;19.10;99.90;;;;;;5098084;28;20066;-71
2023/08/26 10:23:31;;;;;;;5.00;1.80;;;18.40;99.90;;;;;;5110961;28;20487;-72
2023/08/26 10:25:58;;;;;;;7.65;1.70;;;18.20;99.90;;;;;;5091215;28;20047;-71
2023/08/26 10:28:26;;;;;;;5.78;1.75;;;17.70;99.90;;;;;;5093428;28;20702;-72
2023/08/26 10:30:57;;;;;;;5.63;1.95;;;17.30;99.90;;;;;;5102260;28;20442;-69
2023/08/26 10:33:25;;;;;;;5.05;1.88;;;17.00;99.90;;;;;;5109940;28;20046;-70
2023/08/26 10:36:14;;;;;;;6.80;1.63;;;16.70;99.90;;;;;;5105685;28;20054;-72
2023/08/26 10:38:41;;;;;;;6.70;2.30;;;16.40;99.90;;;;;;5093451;28;20055;-69
2023/08/26 10:41:10;;;;;;;3.13;1.70;;;16.30;99.90;;;;;;5107183;28;20062;-68
2023/08/26 10:43:37;;;;;;;3.33;1.80;;;16.20;99.90;;;;;;5088959;27;20040;-69
2023/08/26 10:46:05;;;;;;;8.18;2.45;;;16.30;99.90;;;;;;5089722;28;20174;-71
2023/08/26 10:48:54;;;;;;;5.80;2.30;;;16.30;99.90;;;;;;5109913;28;20047;-71
2023/08/26 10:51:21;;;;;;;3.50;2.28;;;16.60;99.90;;;;;;5092754;28;20040;-70
2023/08/26 10:53:49;;;;;;;5.50;1.70;;;16.70;99.90;;;;;;5076476;28;20114;-72
2023/08/26 10:56:18;;;;;;;4.05;1.63;;;17.00;99.90;;;;;;5109860;28;20130;-71
2023/08/26 10:58:46;;;;;;;4.60;1.52;;;17.30;99.90;;;;;;5090923;28;20052;-71
2023/08/26 11:01:15;;;;;;;2.42;1.58;;;17.70;99.90;;;;;;5090270;28;20140;-70
2023/08/26 11:03:45;;;;;;;3.70;2.00;;;18.50;99.90;;;;;;5083617;27;20518;-65
2023/08/26 11:06:13;;;;;;;4.68;1.88;;;19.30;99.90;;;;;;5105623;28;20035;-65
2023/08/26 11:08:52;;;;;;;3.35;1.30;;;20.30;99.90;;;;;;5101999;27;20048;-65
2023/08/26 11:11:19;;;;;;;3.30;2.00;;;21.10;99.90;;;;;;5103197;28;20043;-65
2023/08/26 11:13:47;;;;;;;2.90;1.67;;;21.70;99.90;;;;;;5108060;28;20047;-65
2023/08/26 11:16:16;;;;;;;3.55;1.55;;;21.90;99.90;;;;;;5101694;27;20048;-66
2023/08/26 11:18:43;;;;;;;3.47;1.63;;;22.60;99.90;;;;;;5113063;27;20514;-66
2023/08/26 11:21:10;;;;;;;3.22;1.95;;;23.50;99.90;;;;;;5092300;28;20100;-66
2023/08/26 11:23:39;;;;;;;3.42;1.85;;;24.00;99.90;;;;;;5088974;28;20056;-66
2023/08/26 11:26:07;;;;;;;3.63;1.90;;;24.30;99.90;;;;;;5090274;28;20052;-66
2023/08/26 11:28:34;;;;;;;4.97;1.98;;;24.30;99.90;;;;;;5085969;28;20051;-66
2023/08/26 11:31:02;;;;;;;5.63;2.28;;;24.80;99.90;;;;;;5107883;28;20051;-66
2023/08/26 11:33:31;;;;;;;3.13;2.03;;;25.30;99.90;;;;;;5089836;28;20039;-66
2023/08/26 11:35:58;;;;;;;3.97;2.40;;;25.80;99.90;;;;;;5105590;28;20039;-66
2023/08/26 11:38:25;;;;;;;5.57;2.70;;;25.40;99.90;;;;;;5090235;28;20047;-66
2023/08/26 11:40:52;;;;;;;7.57;3.00;;;24.60;99.90;;;;;;5100337;28;20491;-66
2023/08/26 11:43:19;;;;;;;5.50;2.97;;;24.40;99.90;;;;;;5105731;28;20050;-67
2023/08/26 11:45:47;;;;;;;6.45;3.45;;;24.70;99.90;;;;;;5103961;28;20051;-67
2023/08/26 11:48:15;;;;;;;5.85;3.30;;;24.20;99.90;;;;;;5102457;28;20093;-66
2023/08/26 11:50:46;;;;;;;4.57;3.30;;;23.80;99.90;;;;;;5089151;28;20059;-66
2023/08/26 11:53:13;;;;;;;7.20;3.58;;;23.10;99.90;;;;;;5102041;28;20044;-66
2023/08/26 11:55:40;;;;;;;5.68;3.28;;;22.40;99.90;;;;;;5089209;28;20066;-66
2023/08/26 11:58:07;;;;;;;7.20;4.07;;;22.00;99.90;;;;;;5090610;28;20048;-66
2023/08/26 12:00:37;;;;;;;5.55;3.40;;;21.80;99.90;;;;;;5089539;28;20490;-66
2023/08/26 12:03:06;;;;;;;6.45;4.40;;;22.00;99.90;;;;;;5103728;28;20419;-66
2023/08/26 12:05:45;;;;;;;7.38;4.03;;;22.50;99.90;;;;;;5104502;28;20043;-66
2023/08/26 12:08:17;;;;;;;5.72;3.78;;;22.80;99.90;;;;;;5107152;28;20074;-66
2023/08/26 12:10:48;;;;;;;6.70;3.20;;;22.70;99.90;;;;;;5088698;28;20091;-66
2023/08/26 12:13:15;;;;;;;7.28;4.10;;;23.00;99.90;;;;;;5101441;28;20048;-66
2023/08/26 12:15:42;;;;;;;6.82;4.20;;;23.30;99.90;;;;;;5088863;28;20074;-66
2023/08/26 12:18:10;;;;;;;6.15;3.78;;;23.40;99.90;;;;;;5107493;28;20093;-66
2023/08/26 12:20:37;;;;;;;3.75;2.70;;;24.40;99.90;;;;;;5083953;28;20054;-65
2023/08/26 12:23:07;;;;;;;5.60;1.80;;;25.20;99.90;;;;;;5085480;28;20060;-69
2023/08/26 12:25:36;;;;;;;4.63;1.77;;;25.60;99.90;;;;;;5091046;27;20051;-69
2023/08/26 12:28:10;;;;;;;3.28;1.48;;;25.30;99.90;;;;;;5092322;28;20052;-69
2023/08/26 12:30:38;;;;;;;3.83;1.65;;;25.70;99.90;;;;;;5090003;28;20051;-71
2023/08/26 12:33:06;;;;;;;3.25;1.52;;;25.80;99.90;;;;;;5104620;27;20071;-71
2023/08/26 12:35:33;;;;;;;2.42;1.20;;;26.30;99.40;;;;;;5106599;27;20097;-70
2023/08/26 12:38:02;;;;;;;2.20;1.10;;;27.00;98.40;;;;;;5104433;27;20490;-71
2023/08/26 12:40:32;;;;;;;2.75;0.98;;;27.60;97.80;;;;;;5106231;27;20472;-71
2023/08/26 12:42:59;;;;;;;1.75;0.93;;;27.30;96.40;;;;;;5105182;28;20083;-69
2023/08/26 12:45:26;;;;;;;2.00;0.93;;;26.90;97.10;;;;;;5096952;27;20051;-66
2023/08/26 12:47:53;;;;;;;1.90;0.82;;;26.30;96.40;;;;;;5108857;28;20055;-66